Van, TX (75790)

3:08 PM CDT on July 07, 2015 (GMT -0500)
NE Van | | Change Station
CLOSE
Current Station
Personal Weather Station
Location: Van, TX
Elevation: 531 ft
Nearby Weather Stations

Elev 531 ft 32.53 °N, 95.63 °W | Updated 12 seconds ago

Partly Cloudy
Partly Cloudy
90.7 °F
Feels Like 96 °F
N
1.1
Wind Variable Wind from SE
Gusts 2.5 mph

Today
High -- | Low -- °F
--% Chance of Precip.
Yesterday
High -- | Low -- °F
Precip. -- in
6:21 AM 8:33 PM
Waning Gibbous, 62% visible
Pressure 29.98 in
Visibility -9999.0 miles
Clouds Few 3700 ft
Scattered Clouds 4500 ft
Scattered Clouds 6000 ft
Heat Index 96 °F
Dew Point 70 °F
Humidity 51%
Rainfall 0.00 in
Snow Depth Not available.
UV 4.0 out of 12
Pollen 4.50 out of 12
Air Quality Not available.
Flu Activity Not available.
METAR KJDD 071955Z AUTO 18007G16KT FEW037 SCT045 SCT060 33/21 A2998 RMK AO2

More Conditions Fewer Conditions

Pressure 29.98 in
Visibility -9999.0 miles
Clouds Few 3700 ft
Scattered Clouds 4500 ft
Scattered Clouds 6000 ft
Heat Index 96 °F
Dew Point 70 °F
Humidity 51%
Rainfall 0.00 in
Snow Depth Not available.
UV 4.0 out of 12
Pollen 4.50 out of 12
Air Quality Not available.
Flu Activity Not available.
METAR KJDD 071955Z AUTO 18007G16KT FEW037 SCT045 SCT060 33/21 A2998 RMK AO2

More Conditions Fewer Conditions

Nowcast | as of 2:57 PM CDT on July 7, 2015

An area of showers will continue mainly west of a line from Gainesville...to Fort Worth...to Comanche through 5 PM. Light to moderate rains will occur with rainfall accumulations up to a quarter inch. Additional showers and thunderstorms are expected in this area through tonight. Elsewhere...widely scattered showers and thunderstorms are occurring...mainly east of Interstate 35. Cloud to ground lightning... heavy downpours and gusty winds may accompany stronger thunderstorms. Otherwise...mostly cloudy and humid conditions will prevail across much of the area this afternoon. Temperatures will range from lower 70s in the west to the lower 90s in the southeast.

×

10-Day Weather Forecast

×

Almanac

Astronomy

Jul. 07, 2015 Rise Set
Actual Time
Civil Twilight
Nautical Twilight
Astronomical Twilight
Moon
Length of Visible Light
Length of Day
Tomorrow will be .
, % of the Moon is Illuminated

Today's Extremes

State Highs State Lows

Community

WunderPhotos

Upload Photos

1,835,884 photos uploaded!

WunderBlogs® & News

Nearby

Air Quality

  Air Quality AQ Index Pollutant
Not available.

Snow Depth

Station Depth Elevation

Earthquake Activity

City Distance Mag. Time & Date
Minimum magnitude displayed is 2.5.

Coastal Water Temperatures

Place Temperature

Stations

Nearby Weather Stations

Station Location Temp. Windchill Dew Point Humidity Wind Precip. Elev Updated Type